createdAt,value
2022-12-17T00:01:04.967Z,102153.38
2022-12-17T00:03:50.703Z,102158.03
2022-12-17T00:06:36.488Z,102150.28
2022-12-17T00:09:22.166Z,102148.81
2022-12-17T00:12:07.273Z,102142.94
2022-12-17T00:14:52.492Z,102153.69
2022-12-17T00:17:51.421Z,102152.16
2022-12-17T00:20:37.288Z,102154.16
2022-12-17T00:23:23.688Z,102154.38
2022-12-17T00:26:09.973Z,102164.00
2022-12-17T00:28:55.153Z,102165.81
2022-12-17T00:31:41.707Z,102160.72
2022-12-17T00:34:28.311Z,102166.88
2022-12-17T00:37:13.504Z,102164.41
2022-12-17T00:40:01.145Z,102164.44
2022-12-17T00:42:46.261Z,102169.72
2022-12-17T00:45:31.531Z,102181.00
2022-12-17T00:48:16.762Z,102181.09
2022-12-17T00:51:03.264Z,102179.31
2022-12-17T00:53:48.237Z,102186.38
2022-12-17T00:56:33.508Z,102192.34
2022-12-17T00:59:18.868Z,102201.75
2022-12-17T01:02:03.976Z,102199.06
2022-12-17T01:04:49.070Z,102193.50
2022-12-17T01:07:35.625Z,102195.72
2022-12-17T01:10:20.772Z,102192.91
2022-12-17T01:13:05.786Z,102199.69
2022-12-17T01:15:51.194Z,102189.06
2022-12-17T01:18:37.392Z,102198.38
2022-12-17T01:21:23.311Z,102196.31
2022-12-17T01:24:09.968Z,102205.50
2022-12-17T01:26:55.240Z,102212.19
2022-12-17T01:29:41.540Z,102224.84
2022-12-17T01:32:26.340Z,102218.44
2022-12-17T01:35:11.517Z,102222.44
2022-12-17T01:37:56.656Z,102226.38
2022-12-17T01:40:57.647Z,102222.53
2022-12-17T01:43:50.643Z,102223.06
2022-12-17T01:46:36.680Z,102228.03
2022-12-17T01:49:22.490Z,102228.56
2022-12-17T01:52:10.951Z,102221.50
2022-12-17T01:54:56.851Z,102240.31
2022-12-17T01:57:44.621Z,102235.88
2022-12-17T02:00:32.026Z,102233.94
2022-12-17T02:03:32.424Z,102218.91
2022-12-17T02:06:30.630Z,102218.75
2022-12-17T02:09:25.318Z,102228.19
2022-12-17T02:12:18.873Z,102235.78
2022-12-17T02:15:11.449Z,102230.28
2022-12-17T02:18:02.713Z,102223.13
2022-12-17T02:20:51.863Z,102229.75
2022-12-17T02:23:50.477Z,102227.72
2022-12-17T02:26:48.109Z,102242.19
2022-12-17T02:29:33.976Z,102235.94
2022-12-17T02:32:20.884Z,102235.69
2022-12-17T02:35:07.237Z,102239.91
2022-12-17T02:37:52.596Z,102231.88
2022-12-17T02:40:38.684Z,102233.41
2022-12-17T02:43:40.935Z,102235.88
2022-12-17T02:46:27.318Z,102225.25
2022-12-17T02:49:20.929Z,102229.34
2022-12-17T02:52:06.805Z,102234.41
2022-12-17T02:54:53.669Z,102233.41
2022-12-17T02:57:43.612Z,102235.03
2022-12-17T03:00:31.897Z,102233.22
2022-12-17T03:03:17.066Z,102234.75
2022-12-17T03:06:02.316Z,102231.97
2022-12-17T03:08:47.527Z,102227.59
2022-12-17T03:11:32.643Z,102231.84
2022-12-17T03:14:17.985Z,102229.94
2022-12-17T03:17:04.516Z,102228.09
2022-12-17T03:20:04.360Z,102233.94
2022-12-17T03:22:49.145Z,102244.31
2022-12-17T03:25:34.265Z,102238.97
2022-12-17T03:28:23.236Z,102232.75
2022-12-17T03:31:08.373Z,102232.63
2022-12-17T03:33:55.211Z,102237.75
2022-12-17T03:36:41.020Z,102235.66
2022-12-17T03:39:26.385Z,102235.50
2022-12-17T03:42:11.333Z,102240.50
2022-12-17T03:44:56.569Z,102237.69
2022-12-17T03:47:41.897Z,102238.31
2022-12-17T03:50:28.318Z,102243.25
2022-12-17T03:53:13.504Z,102241.25
2022-12-17T03:55:58.825Z,102239.34
2022-12-17T03:58:44.077Z,102239.91
2022-12-17T04:01:29.458Z,102246.75
2022-12-17T04:04:14.439Z,102252.72
2022-12-17T04:07:00.980Z,102250.91
2022-12-17T04:09:46.368Z,102262.22
2022-12-17T04:12:31.437Z,102261.41
2022-12-17T04:15:25.163Z,102268.53
2022-12-17T04:18:10.678Z,102270.31
2022-12-17T04:21:07.406Z,102270.53
2022-12-17T04:23:54.078Z,102277.50
2022-12-17T04:26:39.362Z,102278.28
2022-12-17T04:29:24.649Z,102282.56
2022-12-17T04:32:09.745Z,102286.91
2022-12-17T04:34:55.064Z,102279.13
2022-12-17T04:37:40.421Z,102279.81
2022-12-17T04:40:28.895Z,102275.53
2022-12-17T04:43:14.454Z,102276.50
2022-12-17T04:45:59.709Z,102269.63
2022-12-17T04:48:44.872Z,102257.56
2022-12-17T04:51:30.066Z,102262.00
2022-12-17T04:54:15.387Z,102264.47
2022-12-17T04:57:02.032Z,102254.03
2022-12-17T04:59:47.427Z,102255.56
2022-12-17T05:02:32.441Z,102255.63
2022-12-17T05:05:17.549Z,102260.03
2022-12-17T05:08:02.773Z,102241.06
2022-12-17T05:10:48.146Z,102246.44
2022-12-17T05:13:34.849Z,102256.00
2022-12-17T05:16:20.341Z,102256.00
2022-12-17T05:19:05.361Z,102256.00
2022-12-17T05:21:50.172Z,102263.84
2022-12-17T05:24:35.589Z,102259.38
2022-12-17T05:27:20.854Z,102261.09
2022-12-17T05:30:07.378Z,102266.16
2022-12-17T05:32:52.484Z,102271.28
2022-12-17T05:35:37.613Z,102270.47
2022-12-17T05:38:23.848Z,102280.06
2022-12-17T05:41:09.067Z,102269.63
2022-12-17T05:43:54.589Z,102274.75
2022-12-17T05:46:41.379Z,102276.59
2022-12-17T05:49:26.359Z,102275.03
2022-12-17T05:52:11.318Z,102277.78
2022-12-17T05:55:08.105Z,102262.94
2022-12-17T05:57:56.351Z,102271.38
2022-12-17T06:00:42.241Z,102282.56
2022-12-17T06:03:28.581Z,102279.78
2022-12-17T06:06:15.205Z,102277.91
2022-12-17T06:09:00.340Z,102285.59
2022-12-17T06:11:45.345Z,102285.56
2022-12-17T06:14:30.692Z,102287.16
2022-12-17T06:17:15.941Z,102290.59
2022-12-17T06:20:02.624Z,102291.59
2022-12-17T06:22:47.658Z,102297.53
2022-12-17T06:25:32.984Z,102299.22
2022-12-17T06:28:18.870Z,102310.38
2022-12-17T06:31:09.114Z,102302.41
2022-12-17T06:33:54.456Z,102304.91
2022-12-17T06:36:40.995Z,102305.78
2022-12-17T06:39:26.154Z,102310.00
2022-12-17T06:42:11.116Z,102315.22
2022-12-17T06:45:01.693Z,102320.44
2022-12-17T06:47:46.843Z,102315.22
2022-12-17T06:50:32.084Z,102317.13
2022-12-17T06:53:20.333Z,102318.06
2022-12-17T06:56:05.451Z,102313.66
2022-12-17T06:58:50.725Z,102319.72
2022-12-17T07:01:36.159Z,102321.50
2022-12-17T07:04:21.995Z,102342.38
2022-12-17T07:07:15.656Z,102345.84
2022-12-17T07:10:02.151Z,102344.84
2022-12-17T07:12:47.148Z,102341.31
2022-12-17T07:15:32.364Z,102352.66
2022-12-17T07:18:19.088Z,102358.69
2022-12-17T07:21:04.836Z,102353.47
2022-12-17T07:23:50.836Z,102352.66
2022-12-17T07:26:37.462Z,102353.53
2022-12-17T07:29:22.729Z,102355.22
2022-12-17T07:32:07.881Z,102348.25
2022-12-17T07:34:53.111Z,102347.31
2022-12-17T07:37:38.612Z,102369.13
2022-12-17T07:40:25.059Z,102369.00
2022-12-17T07:43:11.287Z,102380.97
2022-12-17T07:45:56.714Z,102385.28
2022-12-17T07:48:56.235Z,102381.81
2022-12-17T07:51:41.221Z,102377.59
2022-12-17T07:54:26.154Z,102381.03
2022-12-17T07:57:11.587Z,102386.19
2022-12-17T07:59:58.141Z,102398.19
2022-12-17T08:02:43.179Z,102396.44
2022-12-17T08:05:28.416Z,102397.13
2022-12-17T08:08:13.632Z,102405.75
2022-12-17T08:10:59.015Z,102403.88
2022-12-17T08:13:43.918Z,102410.13
2022-12-17T08:16:30.333Z,102410.97
2022-12-17T08:19:15.809Z,102410.81
2022-12-17T08:22:00.805Z,102417.59
2022-12-17T08:24:46.215Z,102417.50
2022-12-17T08:27:31.467Z,102428.47
2022-12-17T08:30:16.884Z,102421.25
2022-12-17T08:33:03.495Z,102432.41
2022-12-17T08:35:48.680Z,102449.72
2022-12-17T08:38:34.208Z,102440.88
2022-12-17T08:41:20.221Z,102446.88
2022-12-17T08:44:05.297Z,102442.63
2022-12-17T08:46:50.680Z,102460.88
2022-12-17T08:49:37.017Z,102456.34
2022-12-17T08:52:22.581Z,102458.16
2022-12-17T08:55:07.811Z,102460.00
2022-12-17T08:57:53.096Z,102461.72
2022-12-17T09:00:38.515Z,102459.25
2022-12-17T09:03:23.882Z,102459.69
2022-12-17T09:06:10.852Z,102462.16
2022-12-17T09:08:56.057Z,102466.25
2022-12-17T09:11:41.261Z,102464.91
2022-12-17T09:14:26.853Z,102457.25
2022-12-17T09:17:11.944Z,102462.81
2022-12-17T09:19:57.288Z,102463.53
2022-12-17T09:22:43.540Z,102471.59
2022-12-17T09:25:28.790Z,102474.75
2022-12-17T09:28:18.626Z,102471.38
2022-12-17T09:31:06.298Z,102472.78
2022-12-17T09:33:51.596Z,102470.78
2022-12-17T09:36:36.758Z,102472.25
2022-12-17T09:39:23.591Z,102474.16
2022-12-17T09:42:19.301Z,102464.28
2022-12-17T09:45:10.149Z,102467.41
2022-12-17T09:48:06.661Z,102465.72
2022-12-17T09:50:52.365Z,102477.03
2022-12-17T09:53:42.181Z,102468.94
2022-12-17T09:56:32.279Z,102470.97
2022-12-17T09:59:17.556Z,102480.53
2022-12-17T10:02:03.246Z,102477.75
2022-12-17T10:04:53.336Z,102489.69
2022-12-17T10:07:41.024Z,102489.53
2022-12-17T10:10:36.372Z,102480.78
2022-12-17T10:13:29.167Z,102474.16
2022-12-17T10:16:25.936Z,102482.66
2022-12-17T10:19:11.199Z,102469.88
2022-12-17T10:21:59.761Z,102476.03
2022-12-17T10:24:45.208Z,102478.97
2022-12-17T10:27:36.472Z,102478.19
2022-12-17T10:30:23.903Z,102470.75
2022-12-17T10:33:14.444Z,102472.03
2022-12-17T10:36:02.053Z,102464.66
2022-12-17T10:38:49.503Z,102463.03
2022-12-17T10:41:44.787Z,102467.66
2022-12-17T10:44:44.159Z,102465.03
2022-12-17T10:47:34.984Z,102482.91
2022-12-17T10:50:22.333Z,102475.81
2022-12-17T10:53:07.517Z,102471.94
2022-12-17T10:55:53.819Z,102482.91
2022-12-17T10:58:41.636Z,102478.56
2022-12-17T11:01:31.226Z,102475.34
2022-12-17T11:04:17.830Z,102466.13
2022-12-17T11:07:05.108Z,102482.53
2022-12-17T11:10:08.620Z,102487.94
2022-12-17T11:12:58.481Z,102493.50
2022-12-17T11:15:49.983Z,102478.56
2022-12-17T11:18:39.351Z,102491.28
2022-12-17T11:21:30.437Z,102482.19
2022-12-17T11:24:22.215Z,102470.03
2022-12-17T11:27:12.321Z,102479.72
2022-12-17T11:29:57.693Z,102480.44
2022-12-17T11:32:59.876Z,102481.66
2022-12-17T11:35:49.106Z,102487.41
2022-12-17T11:38:44.656Z,102485.47
2022-12-17T11:41:35.469Z,102490.88
2022-12-17T11:44:30.908Z,102489.56
2022-12-17T11:47:44.685Z,102489.13
2022-12-17T11:50:41.821Z,102494.53
2022-12-17T11:53:40.256Z,102504.84
2022-12-17T11:56:34.709Z,102489.13
2022-12-17T11:59:27.467Z,102478.03
2022-12-17T12:02:23.015Z,102481.75
2022-12-17T12:05:32.636Z,102482.44
2022-12-17T12:08:25.541Z,102490.91
2022-12-17T12:11:19.014Z,102486.66
2022-12-17T12:14:13.399Z,102497.44
2022-12-17T12:17:08.670Z,102501.56
2022-12-17T12:20:04.518Z,102503.44
2022-12-17T12:22:54.009Z,102506.00
2022-12-17T12:25:49.837Z,102504.34
2022-12-17T12:28:45.232Z,102504.03
2022-12-17T12:31:42.913Z,102506.97
2022-12-17T12:34:32.693Z,102501.47
2022-12-17T12:37:20.564Z,102513.03
2022-12-17T12:40:12.599Z,102509.00
2022-12-17T12:43:03.214Z,102512.53
2022-12-17T12:45:56.545Z,102497.03
2022-12-17T12:48:57.030Z,102504.59
2022-12-17T12:51:44.789Z,102498.50
2022-12-17T12:54:49.040Z,102480.56
2022-12-17T12:57:48.970Z,102497.91
2022-12-17T13:00:42.521Z,102501.03
2022-12-17T13:03:39.401Z,102497.09
2022-12-17T13:06:09.019Z,102495.44
2022-12-17T13:08:37.129Z,102501.28
2022-12-17T13:11:13.082Z,102492.97
2022-12-17T13:13:56.147Z,102490.41
2022-12-17T13:16:36.393Z,102494.47
2022-12-17T13:19:06.789Z,102486.56
2022-12-17T13:21:35.993Z,102491.84
2022-12-17T13:24:12.396Z,102487.78
2022-12-17T13:26:46.226Z,102493.06
2022-12-17T13:29:23.314Z,102490.75
2022-12-17T13:32:09.356Z,102483.34
2022-12-17T13:34:47.893Z,102481.81
2022-12-17T13:37:27.744Z,102483.91
2022-12-17T13:40:04.508Z,102492.84
2022-12-17T13:42:35.695Z,102499.13
2022-12-17T13:45:03.608Z,102507.19
2022-12-17T13:47:33.602Z,102499.50
2022-12-17T13:50:32.783Z,102509.50
2022-12-17T13:52:52.771Z,102507.94
2022-12-17T13:55:23.013Z,102505.59
2022-12-17T13:57:52.557Z,102514.56
2022-12-17T14:00:23.717Z,102504.00
2022-12-17T14:02:51.689Z,102504.22
2022-12-17T14:05:30.427Z,102508.72
2022-12-17T14:08:02.869Z,102506.16
2022-12-17T14:10:30.879Z,102509.03
2022-12-17T14:13:06.011Z,102513.38
2022-12-17T14:15:34.069Z,102506.28
2022-12-17T14:45:27.592Z,102547.50
2022-12-17T14:47:56.956Z,102534.00
2022-12-17T14:50:28.740Z,102540.13
2022-12-17T14:52:57.890Z,102536.81
2022-12-17T14:55:29.082Z,102547.28
2022-12-17T14:58:09.673Z,102542.94
2022-12-17T15:00:40.886Z,102548.19
2022-12-17T15:03:12.342Z,102546.44
2022-12-17T15:05:40.062Z,102544.75
2022-12-17T15:08:07.700Z,102538.81
2022-12-17T15:10:35.298Z,102545.84
2022-12-17T15:13:02.931Z,102552.88
2022-12-17T15:15:30.508Z,102553.78
2022-12-17T15:17:59.751Z,102551.28
2022-12-17T15:20:27.416Z,102558.34
2022-12-17T15:22:55.147Z,102561.19
2022-12-17T15:25:23.037Z,102560.28
2022-12-17T15:27:50.712Z,102546.47
2022-12-17T15:30:19.551Z,102560.41
2022-12-17T15:32:47.387Z,102556.06
2022-12-17T15:35:16.463Z,102553.44
2022-12-17T15:37:44.072Z,102547.38
2022-12-17T15:40:12.391Z,102555.97
2022-12-17T15:43:02.922Z,102562.00
2022-12-17T15:45:33.104Z,102564.53
2022-12-17T15:48:00.816Z,102559.38
2022-12-17T15:50:29.691Z,102571.44
2022-12-17T15:52:57.584Z,102569.63
2022-12-17T15:55:25.210Z,102573.97
2022-12-17T15:57:52.790Z,102576.53
2022-12-17T16:00:20.634Z,102561.72
2022-12-17T16:02:48.511Z,102575.63
2022-12-17T16:05:16.665Z,102562.66
2022-12-17T16:07:45.631Z,102566.03
2022-12-17T16:10:15.438Z,102563.56
2022-12-17T16:12:43.401Z,102568.63
2022-12-17T16:15:12.100Z,102567.78
2022-12-17T16:17:39.729Z,102576.53
2022-12-17T16:20:08.492Z,102567.00
2022-12-17T16:22:36.265Z,102572.16
2022-12-17T16:25:05.881Z,102567.00
2022-12-17T16:27:33.417Z,102579.84
2022-12-17T16:30:01.118Z,102567.88
2022-12-17T16:32:33.061Z,102567.09
2022-12-17T16:35:04.682Z,102574.84
2022-12-17T16:37:32.242Z,102568.84
2022-12-17T16:40:00.567Z,102574.94
2022-12-17T16:42:29.743Z,102568.72
2022-12-17T16:44:57.431Z,102575.03
2022-12-17T16:47:25.034Z,102567.22
2022-12-17T16:49:52.641Z,102572.47
2022-12-17T16:52:20.179Z,102578.47
2022-12-17T16:54:48.469Z,102589.81
2022-12-17T16:57:16.038Z,102586.34
2022-12-17T17:00:11.985Z,102590.59
2022-12-17T17:02:39.755Z,102588.75
2022-12-17T17:05:08.009Z,102596.59
2022-12-17T17:07:35.589Z,102597.31
2022-12-17T17:10:03.128Z,102590.34
2022-12-17T17:12:30.697Z,102603.31
2022-12-17T17:14:58.305Z,102598.38
2022-12-17T17:17:55.690Z,102597.53
2022-12-17T17:20:15.840Z,102595.03
2022-12-17T17:22:43.712Z,102594.19
2022-12-17T17:25:11.554Z,102594.19
2022-12-17T17:27:39.351Z,102595.19
2022-12-17T17:30:07.943Z,102605.75
2022-12-17T17:32:37.221Z,102599.75
2022-12-17T17:35:05.685Z,102602.50
2022-12-17T17:37:33.415Z,102606.94
2022-12-17T17:40:01.012Z,102614.03
2022-12-17T17:42:28.596Z,102618.38
2022-12-17T17:44:56.161Z,102616.75
2022-12-17T17:47:23.772Z,102615.06
2022-12-17T17:49:52.722Z,102626.38
2022-12-17T17:52:20.649Z,102627.28
2022-12-17T17:54:48.634Z,102627.25
2022-12-17T17:57:16.249Z,102629.91
2022-12-17T17:59:43.864Z,102629.13
2022-12-17T18:02:13.192Z,102626.50
2022-12-17T18:04:40.879Z,102632.50
2022-12-17T18:07:25.359Z,102628.13
2022-12-17T18:09:53.983Z,102634.31
2022-12-17T18:12:39.957Z,102628.25
2022-12-17T18:15:17.309Z,102643.09
2022-12-17T18:17:47.119Z,102642.59
2022-12-17T18:20:14.904Z,102640.00
2022-12-17T18:22:45.750Z,102634.75
2022-12-17T18:25:13.430Z,102635.56
2022-12-17T18:27:41.065Z,102640.78
2022-12-17T18:30:09.709Z,102643.56
2022-12-17T18:32:37.258Z,102636.59
2022-12-17T18:35:05.481Z,102641.06
2022-12-17T18:37:33.085Z,102644.53
2022-12-17T18:40:02.109Z,102649.63
2022-12-17T18:42:47.432Z,102650.53
2022-12-17T18:45:15.096Z,102662.66
2022-12-17T18:47:44.498Z,102664.63
2022-12-17T18:50:13.021Z,102659.34
2022-12-17T18:52:40.797Z,102665.50
2022-12-17T18:55:12.872Z,102667.38
2022-12-17T18:57:41.758Z,102664.00
2022-12-17T19:00:10.753Z,102662.47
2022-12-17T19:02:38.528Z,102665.84
2022-12-17T19:05:06.545Z,102659.84
2022-12-17T19:07:34.153Z,102662.47
2022-12-17T19:10:01.736Z,102666.69
2022-12-17T19:12:30.661Z,102669.31
2022-12-17T19:14:58.314Z,102667.66
2022-12-17T19:17:26.378Z,102662.50
2022-12-17T19:19:53.994Z,102670.31
2022-12-17T19:22:21.562Z,102673.75
2022-12-17T19:24:49.170Z,102664.41
2022-12-17T19:27:16.759Z,102680.22
2022-12-17T19:29:49.448Z,102677.63
2022-12-17T19:32:17.779Z,102686.31
2022-12-17T19:34:45.430Z,102693.38
2022-12-17T19:37:13.115Z,102689.03
2022-12-17T19:39:40.717Z,102684.72
2022-12-17T19:42:24.188Z,102681.31
2022-12-17T19:44:54.998Z,102688.28
2022-12-17T19:47:23.629Z,102686.63
2022-12-17T19:49:51.261Z,102690.09
2022-12-17T19:52:18.841Z,102696.31
2022-12-17T19:54:46.501Z,102699.81
2022-12-17T19:57:14.103Z,102695.44
2022-12-17T19:59:41.895Z,102690.19
2022-12-17T20:02:11.627Z,102685.88
2022-12-17T20:04:39.723Z,102685.00
2022-12-17T20:07:07.410Z,102688.81
2022-12-17T20:09:34.952Z,102687.91
2022-12-17T20:12:02.521Z,102690.63
2022-12-17T20:14:30.548Z,102682.81
2022-12-17T20:17:00.421Z,102697.63
2022-12-17T20:19:33.053Z,102698.53
2022-12-17T20:22:02.368Z,102699.50
2022-12-17T20:24:31.964Z,102696.03
2022-12-17T20:27:01.007Z,102692.56
2022-12-17T20:29:28.959Z,102694.22
2022-12-17T20:31:57.145Z,102702.09
2022-12-17T20:34:25.640Z,102690.84
2022-12-17T20:36:55.418Z,102703.09
2022-12-17T20:39:27.789Z,102693.69
2022-12-17T20:41:56.360Z,102689.38
2022-12-17T20:44:24.324Z,102683.41
2022-12-17T20:46:51.901Z,102686.22
2022-12-17T20:49:19.628Z,102682.09
2022-12-17T20:51:47.510Z,102689.19
2022-12-17T20:54:16.503Z,102691.06
2022-12-17T20:56:44.181Z,102695.66
2022-12-17T20:59:16.215Z,102701.13
2022-12-17T21:01:44.147Z,102698.75
2022-12-17T21:04:13.445Z,102698.00
2022-12-17T21:06:42.895Z,102693.91
2022-12-17T21:09:11.644Z,102704.47
2022-12-17T21:11:42.263Z,102702.91
2022-12-17T21:14:11.554Z,102708.31
2022-12-17T21:16:42.108Z,102708.47
2022-12-17T21:19:12.468Z,102706.00
2022-12-17T21:21:40.244Z,102706.97
2022-12-17T21:24:10.089Z,102700.13
2022-12-17T21:26:40.921Z,102698.53
2022-12-17T21:29:10.194Z,102698.66
2022-12-17T21:31:40.414Z,102698.75
2022-12-17T21:34:12.047Z,102697.03
2022-12-17T21:36:39.954Z,102689.31
2022-12-17T21:39:09.227Z,102689.41
2022-12-17T21:41:39.370Z,102692.06
2022-12-17T21:44:15.617Z,102699.94
2022-12-17T21:46:46.324Z,102686.97
2022-12-17T21:49:17.823Z,102686.09
2022-12-17T21:51:45.779Z,102682.69
2022-12-17T21:54:19.210Z,102687.06
2022-12-17T21:56:47.602Z,102694.84
2022-12-17T21:59:16.638Z,102702.63
2022-12-17T22:01:44.503Z,102702.63
2022-12-17T22:04:12.343Z,102712.03
2022-12-17T22:06:49.697Z,102717.28
2022-12-17T22:09:40.031Z,102737.19
2022-12-17T22:12:32.392Z,102736.31
2022-12-17T22:15:01.318Z,102736.22
2022-12-17T22:17:29.401Z,102744.03
2022-12-17T22:19:56.989Z,102740.69
2022-12-17T22:22:24.532Z,102736.34
2022-12-17T22:24:52.087Z,102746.78
2022-12-17T22:27:19.782Z,102749.47
2022-12-17T22:30:04.881Z,102757.25
2022-12-17T22:32:51.385Z,102759.88
2022-12-17T22:36:55.473Z,102752.97
2022-12-17T22:41:07.579Z,102753.03
2022-12-17T22:44:18.491Z,102745.31
2022-12-17T22:44:36.806Z,102746.19
2022-12-17T22:46:31.459Z,102747.19
2022-12-17T22:49:00.479Z,102767.19
2022-12-17T22:51:30.294Z,102780.25
2022-12-17T22:54:08.956Z,102779.47
2022-12-17T22:57:34.766Z,102783.00
2022-12-17T22:59:25.621Z,102784.81
2022-12-17T23:01:53.237Z,102773.63
2022-12-17T23:04:22.466Z,102783.19
2022-12-17T23:06:50.135Z,102778.13
2022-12-17T23:09:20.144Z,102773.81
2022-12-17T23:11:49.552Z,102777.31
2022-12-17T23:14:18.016Z,102773.00
2022-12-17T23:16:47.156Z,102773.03
2022-12-17T23:19:15.200Z,102780.03
2022-12-17T23:21:44.210Z,102778.38
2022-12-17T23:24:11.785Z,102774.91
2022-12-17T23:26:40.736Z,102768.94
2022-12-17T23:29:19.133Z,102769.06
2022-12-17T23:31:47.856Z,102765.91
2022-12-17T23:34:16.080Z,102767.72
2022-12-17T23:36:45.011Z,102763.38
2022-12-17T23:39:12.662Z,102766.88
2022-12-17T23:41:40.289Z,102771.16
2022-12-17T23:44:07.898Z,102773.63
2022-12-17T23:46:35.537Z,102764.03
2022-12-17T23:49:05.415Z,102756.16
2022-12-17T23:51:33.928Z,102748.31
2022-12-17T23:54:02.952Z,102753.50
2022-12-17T23:56:30.766Z,102756.00
2022-12-17T23:59:00.147Z,102753.38
